<?xml version="1.0" encoding="UTF-8" standalone="no" ?>
<gpx xmlns="http://www.topografix.com/GPX/1/1" xmlns:xsi="http://www.w3.org/2001/XMLSchema-instance" xsi:schemaLocation="http://www.topografix.com/GPX/1/1 http://www.topografix.com/GPX/1/1/gpx.xsd" version="1.1" creator="VisuGPX - https://www.visugpx.com">
  <metadata>
    <name>circuits Cotentin</name>
  </metadata>
  <trk>
    <name><![CDATA[cap de la hague]]></name>
    <extensions>
      <line xmlns="http://www.topografix.com/GPX/gpx_style/0/2">
        <color>FFFF00</color>
        <width>4</width>
      </line>
    </extensions>
    <trkseg>
      <trkpt lat="49.71133" lon="-1.89706">
        <ele>10</ele>
        <time>2022-06-18T09:07:42Z</time>
      </trkpt>
      <trkpt lat="49.71183" lon="-1.89755">
        <ele>18</ele>
        <time>2022-06-18T09:08:29Z</time>
      </trkpt>
      <trkpt lat="49.7123" lon="-1.89789">
        <ele>24</ele>
        <time>2022-06-18T09:09:11Z</time>
      </trkpt>
      <trkpt lat="49.71243" lon="-1.89778">
        <ele>22</ele>
        <time>2022-06-18T09:09:23Z</time>
      </trkpt>
      <trkpt lat="49.71284" lon="-1.8978">
        <ele>25</ele>
        <time>2022-06-18T09:09:56Z</time>
      </trkpt>
      <trkpt lat="49.71351" lon="-1.89775">
        <ele>30</ele>
        <time>2022-06-18T09:10:49Z</time>
      </trkpt>
      <trkpt lat="49.71368" lon="-1.89776">
        <ele>32</ele>
        <time>2022-06-18T09:11:03Z</time>
      </trkpt>
      <trkpt lat="49.71371" lon="-1.89779">
        <ele>32</ele>
        <time>2022-06-18T09:11:06Z</time>
      </trkpt>
      <trkpt lat="49.71368" lon="-1.89776">
        <ele>32</ele>
        <time>2022-06-18T09:11:09Z</time>
      </trkpt>
      <trkpt lat="49.71381" lon="-1.89762">
        <ele>31</ele>
        <time>2022-06-18T09:11:21Z</time>
      </trkpt>
      <trkpt lat="49.71362" lon="-1.89716">
        <ele>21</ele>
        <time>2022-06-18T09:11:50Z</time>
      </trkpt>
      <trkpt lat="49.71385" lon="-1.89701">
        <ele>21</ele>
        <time>2022-06-18T09:12:10Z</time>
      </trkpt>
      <trkpt lat="49.7139" lon="-1.89686">
        <ele>19</ele>
        <time>2022-06-18T09:12:18Z</time>
      </trkpt>
      <trkpt lat="49.71433" lon="-1.89665">
        <ele>18</ele>
        <time>2022-06-18T09:12:54Z</time>
      </trkpt>
      <trkpt lat="49.71437" lon="-1.89657">
        <ele>17</ele>
        <time>2022-06-18T09:13:00Z</time>
      </trkpt>
      <trkpt lat="49.71441" lon="-1.89649">
        <ele>16</ele>
        <time>2022-06-18T09:13:05Z</time>
      </trkpt>
      <trkpt lat="49.71465" lon="-1.89637">
        <ele>15</ele>
        <time>2022-06-18T09:13:25Z</time>
      </trkpt>
      <trkpt lat="49.71476" lon="-1.89616">
        <ele>12</ele>
        <time>2022-06-18T09:13:39Z</time>
      </trkpt>
      <trkpt lat="49.71514" lon="-1.89598">
        <ele>10</ele>
        <time>2022-06-18T09:14:11Z</time>
      </trkpt>
      <trkpt lat="49.7153" lon="-1.89599">
        <ele>11</ele>
        <time>2022-06-18T09:14:24Z</time>
      </trkpt>
      <trkpt lat="49.7156" lon="-1.89589">
        <ele>9</ele>
        <time>2022-06-18T09:14:48Z</time>
      </trkpt>
      <trkpt lat="49.71568" lon="-1.89569">
        <ele>7</ele>
        <time>2022-06-18T09:15:01Z</time>
      </trkpt>
      <trkpt lat="49.71577" lon="-1.89567">
        <ele>7</ele>
        <time>2022-06-18T09:15:08Z</time>
      </trkpt>
      <trkpt lat="49.7165" lon="-1.89623">
        <ele>5</ele>
        <time>2022-06-18T09:16:13Z</time>
      </trkpt>
      <trkpt lat="49.71679" lon="-1.89688">
        <ele>6</ele>
        <time>2022-06-18T09:16:54Z</time>
      </trkpt>
      <trkpt lat="49.71678" lon="-1.8976">
        <ele>7</ele>
        <time>2022-06-18T09:17:31Z</time>
      </trkpt>
      <trkpt lat="49.71681" lon="-1.89784">
        <ele>8</ele>
        <time>2022-06-18T09:17:44Z</time>
      </trkpt>
      <trkpt lat="49.71697" lon="-1.89826">
        <ele>8</ele>
        <time>2022-06-18T09:18:09Z</time>
      </trkpt>
      <trkpt lat="49.71714" lon="-1.89835">
        <ele>6</ele>
        <time>2022-06-18T09:18:23Z</time>
      </trkpt>
      <trkpt lat="49.71763" lon="-1.89904">
        <ele>5</ele>
        <time>2022-06-18T09:19:17Z</time>
      </trkpt>
      <trkpt lat="49.71768" lon="-1.89943">
        <ele>7</ele>
        <time>2022-06-18T09:19:37Z</time>
      </trkpt>
      <trkpt lat="49.71826" lon="-1.9001">
        <ele>8</ele>
        <time>2022-06-18T09:20:35Z</time>
      </trkpt>
      <trkpt lat="49.71835" lon="-1.90027">
        <ele>7</ele>
        <time>2022-06-18T09:20:46Z</time>
      </trkpt>
      <trkpt lat="49.71839" lon="-1.90063">
        <ele>8</ele>
        <time>2022-06-18T09:21:05Z</time>
      </trkpt>
      <trkpt lat="49.71842" lon="-1.90151">
        <ele>8</ele>
        <time>2022-06-18T09:21:51Z</time>
      </trkpt>
      <trkpt lat="49.71845" lon="-1.90181">
        <ele>8</ele>
        <time>2022-06-18T09:22:07Z</time>
      </trkpt>
      <trkpt lat="49.7187" lon="-1.9032">
        <ele>6</ele>
        <time>2022-06-18T09:23:21Z</time>
      </trkpt>
      <trkpt lat="49.71873" lon="-1.90323">
        <ele>6</ele>
        <time>2022-06-18T09:23:24Z</time>
      </trkpt>
      <trkpt lat="49.71879" lon="-1.90325">
        <ele>6</ele>
        <time>2022-06-18T09:23:29Z</time>
      </trkpt>
      <trkpt lat="49.71903" lon="-1.90346">
        <ele>5</ele>
        <time>2022-06-18T09:23:51Z</time>
      </trkpt>
      <trkpt lat="49.71951" lon="-1.90406">
        <ele>7</ele>
        <time>2022-06-18T09:24:41Z</time>
      </trkpt>
      <trkpt lat="49.71994" lon="-1.90401">
        <ele>5</ele>
        <time>2022-06-18T09:25:15Z</time>
      </trkpt>
      <trkpt lat="49.72046" lon="-1.90413">
        <ele>4</ele>
        <time>2022-06-18T09:25:57Z</time>
      </trkpt>
      <trkpt lat="49.72056" lon="-1.90428">
        <ele>4</ele>
        <time>2022-06-18T09:26:08Z</time>
      </trkpt>
      <trkpt lat="49.72082" lon="-1.90435">
        <ele>3</ele>
        <time>2022-06-18T09:26:30Z</time>
      </trkpt>
      <trkpt lat="49.72091" lon="-1.90452">
        <ele>3</ele>
        <time>2022-06-18T09:26:41Z</time>
      </trkpt>
      <trkpt lat="49.72101" lon="-1.9054">
        <ele>4</ele>
        <time>2022-06-18T09:27:27Z</time>
      </trkpt>
      <trkpt lat="49.7211" lon="-1.90565">
        <ele>4</ele>
        <time>2022-06-18T09:27:42Z</time>
      </trkpt>
      <trkpt lat="49.72118" lon="-1.90588">
        <ele>4</ele>
        <time>2022-06-18T09:27:56Z</time>
      </trkpt>
      <trkpt lat="49.72125" lon="-1.90595">
        <ele>3</ele>
        <time>2022-06-18T09:28:02Z</time>
      </trkpt>
      <trkpt lat="49.72135" lon="-1.90647">
        <ele>5</ele>
        <time>2022-06-18T09:28:30Z</time>
      </trkpt>
      <trkpt lat="49.7214" lon="-1.90703">
        <ele>5</ele>
        <time>2022-06-18T09:29:00Z</time>
      </trkpt>
      <trkpt lat="49.72136" lon="-1.90757">
        <ele>5</ele>
        <time>2022-06-18T09:29:28Z</time>
      </trkpt>
      <trkpt lat="49.72117" lon="-1.90826">
        <ele>3</ele>
        <time>2022-06-18T09:30:07Z</time>
      </trkpt>
      <trkpt lat="49.72107" lon="-1.90902">
        <ele>3</ele>
        <time>2022-06-18T09:30:47Z</time>
      </trkpt>
      <trkpt lat="49.72106" lon="-1.90941">
        <ele>3</ele>
        <time>2022-06-18T09:31:07Z</time>
      </trkpt>
      <trkpt lat="49.72115" lon="-1.91033">
        <ele>3</ele>
        <time>2022-06-18T09:31:55Z</time>
      </trkpt>
      <trkpt lat="49.72122" lon="-1.91087">
        <ele>3</ele>
        <time>2022-06-18T09:32:24Z</time>
      </trkpt>
      <trkpt lat="49.72133" lon="-1.91132">
        <ele>3</ele>
        <time>2022-06-18T09:32:48Z</time>
      </trkpt>
      <trkpt lat="49.72143" lon="-1.91187">
        <ele>3</ele>
        <time>2022-06-18T09:33:18Z</time>
      </trkpt>
      <trkpt lat="49.72164" lon="-1.91228">
        <ele>2</ele>
        <time>2022-06-18T09:33:45Z</time>
      </trkpt>
      <trkpt lat="49.72173" lon="-1.91239">
        <ele>2</ele>
        <time>2022-06-18T09:33:54Z</time>
      </trkpt>
      <trkpt lat="49.72197" lon="-1.91252">
        <ele>2</ele>
        <time>2022-06-18T09:34:15Z</time>
      </trkpt>
      <trkpt lat="49.72214" lon="-1.91255">
        <ele>2</ele>
        <time>2022-06-18T09:34:28Z</time>
      </trkpt>
      <trkpt lat="49.72232" lon="-1.91264">
        <ele>3</ele>
        <time>2022-06-18T09:34:43Z</time>
      </trkpt>
      <trkpt lat="49.72256" lon="-1.91291">
        <ele>4</ele>
        <time>2022-06-18T09:35:07Z</time>
      </trkpt>
      <trkpt lat="49.72276" lon="-1.91309">
        <ele>5</ele>
        <time>2022-06-18T09:35:26Z</time>
      </trkpt>
      <trkpt lat="49.72303" lon="-1.91333">
        <ele>5</ele>
        <time>2022-06-18T09:35:51Z</time>
      </trkpt>
      <trkpt lat="49.72331" lon="-1.91364">
        <ele>5</ele>
        <time>2022-06-18T09:36:18Z</time>
      </trkpt>
      <trkpt lat="49.72375" lon="-1.91426">
        <ele>3</ele>
        <time>2022-06-18T09:37:06Z</time>
      </trkpt>
      <trkpt lat="49.72403" lon="-1.91534">
        <ele>3</ele>
        <time>2022-06-18T09:38:06Z</time>
      </trkpt>
      <trkpt lat="49.72402" lon="-1.9154">
        <ele>3</ele>
        <time>2022-06-18T09:38:09Z</time>
      </trkpt>
      <trkpt lat="49.72421" lon="-1.91578">
        <ele>4</ele>
        <time>2022-06-18T09:38:34Z</time>
      </trkpt>
      <trkpt lat="49.72445" lon="-1.91611">
        <ele>3</ele>
        <time>2022-06-18T09:39:00Z</time>
      </trkpt>
      <trkpt lat="49.72502" lon="-1.9171">
        <ele>1</ele>
        <time>2022-06-18T09:40:09Z</time>
      </trkpt>
      <trkpt lat="49.72507" lon="-1.91829">
        <ele>2</ele>
        <time>2022-06-18T09:41:10Z</time>
      </trkpt>
      <trkpt lat="49.72522" lon="-1.91923">
        <ele>3</ele>
        <time>2022-06-18T09:42:00Z</time>
      </trkpt>
      <trkpt lat="49.72548" lon="-1.92035">
        <ele>3</ele>
        <time>2022-06-18T09:43:02Z</time>
      </trkpt>
      <trkpt lat="49.72577" lon="-1.92137">
        <ele>2</ele>
        <time>2022-06-18T09:44:00Z</time>
      </trkpt>
      <trkpt lat="49.72605" lon="-1.92182">
        <ele>2</ele>
        <time>2022-06-18T09:44:32Z</time>
      </trkpt>
      <trkpt lat="49.72622" lon="-1.92198">
        <ele>2</ele>
        <time>2022-06-18T09:44:48Z</time>
      </trkpt>
      <trkpt lat="49.72631" lon="-1.92242">
        <ele>3</ele>
        <time>2022-06-18T09:45:12Z</time>
      </trkpt>
      <trkpt lat="49.72638" lon="-1.92284">
        <ele>3</ele>
        <time>2022-06-18T09:45:34Z</time>
      </trkpt>
      <trkpt lat="49.72637" lon="-1.92296">
        <ele>3</ele>
        <time>2022-06-18T09:45:41Z</time>
      </trkpt>
      <trkpt lat="49.72628" lon="-1.92343">
        <ele>4</ele>
        <time>2022-06-18T09:46:06Z</time>
      </trkpt>
      <trkpt lat="49.72628" lon="-1.92442">
        <ele>3</ele>
        <time>2022-06-18T09:46:57Z</time>
      </trkpt>
      <trkpt lat="49.72629" lon="-1.92458">
        <ele>3</ele>
        <time>2022-06-18T09:47:05Z</time>
      </trkpt>
      <trkpt lat="49.72641" lon="-1.92487">
        <ele>2</ele>
        <time>2022-06-18T09:47:23Z</time>
      </trkpt>
      <trkpt lat="49.72651" lon="-1.92522">
        <ele>2</ele>
        <time>2022-06-18T09:47:43Z</time>
      </trkpt>
      <trkpt lat="49.72653" lon="-1.92531">
        <ele>2</ele>
        <time>2022-06-18T09:47:48Z</time>
      </trkpt>
      <trkpt lat="49.72672" lon="-1.92561">
        <ele>2</ele>
        <time>2022-06-18T09:48:10Z</time>
      </trkpt>
      <trkpt lat="49.72682" lon="-1.92582">
        <ele>2</ele>
        <time>2022-06-18T09:48:23Z</time>
      </trkpt>
      <trkpt lat="49.72686" lon="-1.92606">
        <ele>2</ele>
        <time>2022-06-18T09:48:36Z</time>
      </trkpt>
      <trkpt lat="49.72665" lon="-1.92658">
        <ele>3</ele>
        <time>2022-06-18T09:49:08Z</time>
      </trkpt>
      <trkpt lat="49.72644" lon="-1.92737">
        <ele>3</ele>
        <time>2022-06-18T09:49:52Z</time>
      </trkpt>
      <trkpt lat="49.72637" lon="-1.92791">
        <ele>2</ele>
        <time>2022-06-18T09:50:21Z</time>
      </trkpt>
      <trkpt lat="49.72642" lon="-1.92813">
        <ele>1</ele>
        <time>2022-06-18T09:50:33Z</time>
      </trkpt>
      <trkpt lat="49.72634" lon="-1.92843">
        <ele>1</ele>
        <time>2022-06-18T09:50:49Z</time>
      </trkpt>
      <trkpt lat="49.72625" lon="-1.92868">
        <ele>1</ele>
        <time>2022-06-18T09:51:04Z</time>
      </trkpt>
      <trkpt lat="49.72609" lon="-1.92897">
        <ele>2</ele>
        <time>2022-06-18T09:51:24Z</time>
      </trkpt>
      <trkpt lat="49.72595" lon="-1.92932">
        <ele>2</ele>
        <time>2022-06-18T09:51:45Z</time>
      </trkpt>
      <trkpt lat="49.72585" lon="-1.92964">
        <ele>2</ele>
        <time>2022-06-18T09:52:04Z</time>
      </trkpt>
      <trkpt lat="49.72581" lon="-1.92989">
        <ele>2</ele>
        <time>2022-06-18T09:52:17Z</time>
      </trkpt>
      <trkpt lat="49.72579" lon="-1.93008">
        <ele>2</ele>
        <time>2022-06-18T09:52:27Z</time>
      </trkpt>
      <trkpt lat="49.72582" lon="-1.93048">
        <ele>3</ele>
        <time>2022-06-18T09:52:48Z</time>
      </trkpt>
      <trkpt lat="49.72595" lon="-1.93075">
        <ele>2</ele>
        <time>2022-06-18T09:53:05Z</time>
      </trkpt>
      <trkpt lat="49.72604" lon="-1.93083">
        <ele>2</ele>
        <time>2022-06-18T09:53:14Z</time>
      </trkpt>
      <trkpt lat="49.72614" lon="-1.93133">
        <ele>2</ele>
        <time>2022-06-18T09:53:41Z</time>
      </trkpt>
      <trkpt lat="49.72612" lon="-1.93155">
        <ele>3</ele>
        <time>2022-06-18T09:53:52Z</time>
      </trkpt>
      <trkpt lat="49.72606" lon="-1.93166">
        <ele>3</ele>
        <time>2022-06-18T09:54:00Z</time>
      </trkpt>
      <trkpt lat="49.72602" lon="-1.93187">
        <ele>3</ele>
        <time>2022-06-18T09:54:11Z</time>
      </trkpt>
      <trkpt lat="49.72597" lon="-1.93223">
        <ele>3</ele>
        <time>2022-06-18T09:54:30Z</time>
      </trkpt>
      <trkpt lat="49.72602" lon="-1.9329">
        <ele>2</ele>
        <time>2022-06-18T09:55:05Z</time>
      </trkpt>
      <trkpt lat="49.72613" lon="-1.93351">
        <ele>2</ele>
        <time>2022-06-18T09:55:38Z</time>
      </trkpt>
      <trkpt lat="49.72625" lon="-1.93383">
        <ele>2</ele>
        <time>2022-06-18T09:55:57Z</time>
      </trkpt>
      <trkpt lat="49.72638" lon="-1.93405">
        <ele>2</ele>
        <time>2022-06-18T09:56:12Z</time>
      </trkpt>
      <trkpt lat="49.72654" lon="-1.93421">
        <ele>2</ele>
        <time>2022-06-18T09:56:27Z</time>
      </trkpt>
      <trkpt lat="49.72674" lon="-1.93422">
        <ele>2</ele>
        <time>2022-06-18T09:56:43Z</time>
      </trkpt>
      <trkpt lat="49.72679" lon="-1.9342">
        <ele>2</ele>
        <time>2022-06-18T09:56:48Z</time>
      </trkpt>
      <trkpt lat="49.72685" lon="-1.93423">
        <ele>2</ele>
        <time>2022-06-18T09:56:53Z</time>
      </trkpt>
      <trkpt lat="49.72686" lon="-1.93433">
        <ele>2</ele>
        <time>2022-06-18T09:56:58Z</time>
      </trkpt>
      <trkpt lat="49.72677" lon="-1.93453">
        <ele>2</ele>
        <time>2022-06-18T09:57:11Z</time>
      </trkpt>
      <trkpt lat="49.72645" lon="-1.93485">
        <ele>2</ele>
        <time>2022-06-18T09:57:41Z</time>
      </trkpt>
      <trkpt lat="49.72613" lon="-1.93545">
        <ele>3</ele>
        <time>2022-06-18T09:58:21Z</time>
      </trkpt>
      <trkpt lat="49.72606" lon="-1.93572">
        <ele>2</ele>
        <time>2022-06-18T09:58:36Z</time>
      </trkpt>
      <trkpt lat="49.72599" lon="-1.93616">
        <ele>3</ele>
        <time>2022-06-18T09:59:00Z</time>
      </trkpt>
      <trkpt lat="49.726" lon="-1.93663">
        <ele>3</ele>
        <time>2022-06-18T09:59:24Z</time>
      </trkpt>
      <trkpt lat="49.72606" lon="-1.93679">
        <ele>3</ele>
        <time>2022-06-18T09:59:34Z</time>
      </trkpt>
      <trkpt lat="49.72612" lon="-1.93708">
        <ele>3</ele>
        <time>2022-06-18T09:59:49Z</time>
      </trkpt>
      <trkpt lat="49.72612" lon="-1.93813">
        <ele>5</ele>
        <time>2022-06-18T10:00:44Z</time>
      </trkpt>
      <trkpt lat="49.72615" lon="-1.93822">
        <ele>5</ele>
        <time>2022-06-18T10:00:49Z</time>
      </trkpt>
      <trkpt lat="49.72609" lon="-1.93847">
        <ele>5</ele>
        <time>2022-06-18T10:01:03Z</time>
      </trkpt>
      <trkpt lat="49.72609" lon="-1.93851">
        <ele>5</ele>
        <time>2022-06-18T10:01:05Z</time>
      </trkpt>
      <trkpt lat="49.72612" lon="-1.93856">
        <ele>5</ele>
        <time>2022-06-18T10:01:08Z</time>
      </trkpt>
      <trkpt lat="49.72626" lon="-1.93866">
        <ele>4</ele>
        <time>2022-06-18T10:01:21Z</time>
      </trkpt>
      <trkpt lat="49.7263" lon="-1.93876">
        <ele>4</ele>
        <time>2022-06-18T10:01:27Z</time>
      </trkpt>
      <trkpt lat="49.72631" lon="-1.93885">
        <ele>4</ele>
        <time>2022-06-18T10:01:32Z</time>
      </trkpt>
      <trkpt lat="49.72629" lon="-1.93942">
        <ele>3</ele>
        <time>2022-06-18T10:02:01Z</time>
      </trkpt>
      <trkpt lat="49.72631" lon="-1.9397">
        <ele>3</ele>
        <time>2022-06-18T10:02:16Z</time>
      </trkpt>
      <trkpt lat="49.72627" lon="-1.93989">
        <ele>3</ele>
        <time>2022-06-18T10:02:26Z</time>
      </trkpt>
      <trkpt lat="49.72618" lon="-1.94033">
        <ele>3</ele>
        <time>2022-06-18T10:02:50Z</time>
      </trkpt>
      <trkpt lat="49.72602" lon="-1.94065">
        <ele>3</ele>
        <time>2022-06-18T10:03:11Z</time>
      </trkpt>
      <trkpt lat="49.72582" lon="-1.94093">
        <ele>3</ele>
        <time>2022-06-18T10:03:33Z</time>
      </trkpt>
      <trkpt lat="49.72534" lon="-1.94141">
        <ele>3</ele>
        <time>2022-06-18T10:04:18Z</time>
      </trkpt>
      <trkpt lat="49.72525" lon="-1.9415">
        <ele>3</ele>
        <time>2022-06-18T10:04:27Z</time>
      </trkpt>
      <trkpt lat="49.72495" lon="-1.94164">
        <ele>3</ele>
        <time>2022-06-18T10:04:52Z</time>
      </trkpt>
      <trkpt lat="49.72437" lon="-1.94239">
        <ele>3</ele>
        <time>2022-06-18T10:05:52Z</time>
      </trkpt>
      <trkpt lat="49.72428" lon="-1.94242">
        <ele>3</ele>
        <time>2022-06-18T10:06:00Z</time>
      </trkpt>
      <trkpt lat="49.7242" lon="-1.9425">
        <ele>3</ele>
        <time>2022-06-18T10:06:07Z</time>
      </trkpt>
      <trkpt lat="49.72404" lon="-1.94284">
        <ele>2</ele>
        <time>2022-06-18T10:06:29Z</time>
      </trkpt>
      <trkpt lat="49.72387" lon="-1.94309">
        <ele>2</ele>
        <time>2022-06-18T10:06:48Z</time>
      </trkpt>
      <trkpt lat="49.72374" lon="-1.94316">
        <ele>1</ele>
        <time>2022-06-18T10:06:59Z</time>
      </trkpt>
      <trkpt lat="49.72349" lon="-1.94312">
        <ele>2</ele>
        <time>2022-06-18T10:07:19Z</time>
      </trkpt>
      <trkpt lat="49.7233" lon="-1.94314">
        <ele>1</ele>
        <time>2022-06-18T10:07:34Z</time>
      </trkpt>
      <trkpt lat="49.723" lon="-1.94326">
        <ele>2</ele>
        <time>2022-06-18T10:07:59Z</time>
      </trkpt>
      <trkpt lat="49.72275" lon="-1.94341">
        <ele>2</ele>
        <time>2022-06-18T10:08:21Z</time>
      </trkpt>
      <trkpt lat="49.72242" lon="-1.94369">
        <ele>2</ele>
        <time>2022-06-18T10:08:51Z</time>
      </trkpt>
      <trkpt lat="49.72213" lon="-1.94396">
        <ele>2</ele>
        <time>2022-06-18T10:09:18Z</time>
      </trkpt>
      <trkpt lat="49.72157" lon="-1.94435">
        <ele>2</ele>
        <time>2022-06-18T10:10:07Z</time>
      </trkpt>
      <trkpt lat="49.72129" lon="-1.94445">
        <ele>1</ele>
        <time>2022-06-18T10:10:30Z</time>
      </trkpt>
      <trkpt lat="49.72083" lon="-1.94452">
        <ele>2</ele>
        <time>2022-06-18T10:11:07Z</time>
      </trkpt>
      <trkpt lat="49.71945" lon="-1.94429">
        <ele>1</ele>
        <time>2022-06-18T10:12:58Z</time>
      </trkpt>
      <trkpt lat="49.71933" lon="-1.94428">
        <ele>1</ele>
        <time>2022-06-18T10:13:08Z</time>
      </trkpt>
      <trkpt lat="49.71886" lon="-1.9443">
        <ele>1</ele>
        <time>2022-06-18T10:13:46Z</time>
      </trkpt>
      <trkpt lat="49.7185" lon="-1.94442">
        <ele>1</ele>
        <time>2022-06-18T10:14:15Z</time>
      </trkpt>
      <trkpt lat="49.71812" lon="-1.94464">
        <ele>1</ele>
        <time>2022-06-18T10:14:48Z</time>
      </trkpt>
      <trkpt lat="49.71785" lon="-1.94483">
        <ele>2</ele>
        <time>2022-06-18T10:15:11Z</time>
      </trkpt>
      <trkpt lat="49.71726" lon="-1.94534">
        <ele>1</ele>
        <time>2022-06-18T10:16:05Z</time>
      </trkpt>
      <trkpt lat="49.71704" lon="-1.94557">
        <ele>1</ele>
        <time>2022-06-18T10:16:27Z</time>
      </trkpt>
      <trkpt lat="49.71688" lon="-1.9458">
        <ele>2</ele>
        <time>2022-06-18T10:16:44Z</time>
      </trkpt>
      <trkpt lat="49.7168" lon="-1.94602">
        <ele>2</ele>
        <time>2022-06-18T10:16:57Z</time>
      </trkpt>
      <trkpt lat="49.71655" lon="-1.9459">
        <ele>2</ele>
        <time>2022-06-18T10:17:18Z</time>
      </trkpt>
      <trkpt lat="49.71577" lon="-1.9456">
        <ele>2</ele>
        <time>2022-06-18T10:18:23Z</time>
      </trkpt>
      <trkpt lat="49.71558" lon="-1.94552">
        <ele>2</ele>
        <time>2022-06-18T10:18:38Z</time>
      </trkpt>
      <trkpt lat="49.71554" lon="-1.94546">
        <ele>2</ele>
        <time>2022-06-18T10:18:43Z</time>
      </trkpt>
      <trkpt lat="49.7155" lon="-1.94518">
        <ele>2</ele>
        <time>2022-06-18T10:18:58Z</time>
      </trkpt>
      <trkpt lat="49.71541" lon="-1.94487">
        <ele>1</ele>
        <time>2022-06-18T10:19:15Z</time>
      </trkpt>
      <trkpt lat="49.71553" lon="-1.94474">
        <ele>2</ele>
        <time>2022-06-18T10:19:27Z</time>
      </trkpt>
      <trkpt lat="49.71534" lon="-1.94426">
        <ele>1</ele>
        <time>2022-06-18T10:19:56Z</time>
      </trkpt>
      <trkpt lat="49.71521" lon="-1.94397">
        <ele>1</ele>
        <time>2022-06-18T10:20:14Z</time>
      </trkpt>
      <trkpt lat="49.71502" lon="-1.94366">
        <ele>2</ele>
        <time>2022-06-18T10:20:36Z</time>
      </trkpt>
      <trkpt lat="49.71483" lon="-1.94344">
        <ele>2</ele>
        <time>2022-06-18T10:20:55Z</time>
      </trkpt>
      <trkpt lat="49.71463" lon="-1.9433">
        <ele>2</ele>
        <time>2022-06-18T10:21:13Z</time>
      </trkpt>
      <trkpt lat="49.71422" lon="-1.94326">
        <ele>2</ele>
        <time>2022-06-18T10:21:46Z</time>
      </trkpt>
      <trkpt lat="49.71399" lon="-1.94327">
        <ele>3</ele>
        <time>2022-06-18T10:22:04Z</time>
      </trkpt>
      <trkpt lat="49.71371" lon="-1.94333">
        <ele>3</ele>
        <time>2022-06-18T10:22:27Z</time>
      </trkpt>
      <trkpt lat="49.71343" lon="-1.94336">
        <ele>4</ele>
        <time>2022-06-18T10:22:49Z</time>
      </trkpt>
      <trkpt lat="49.71337" lon="-1.94332">
        <ele>4</ele>
        <time>2022-06-18T10:22:55Z</time>
      </trkpt>
      <trkpt lat="49.71335" lon="-1.94326">
        <ele>4</ele>
        <time>2022-06-18T10:22:58Z</time>
      </trkpt>
      <trkpt lat="49.71332" lon="-1.94264">
        <ele>6</ele>
        <time>2022-06-18T10:23:30Z</time>
      </trkpt>
      <trkpt lat="49.7132" lon="-1.94202">
        <ele>8</ele>
        <time>2022-06-18T10:24:04Z</time>
      </trkpt>
      <trkpt lat="49.71308" lon="-1.94208">
        <ele>8</ele>
        <time>2022-06-18T10:24:14Z</time>
      </trkpt>
      <trkpt lat="49.71264" lon="-1.9425">
        <ele>8</ele>
        <time>2022-06-18T10:24:55Z</time>
      </trkpt>
      <trkpt lat="49.71177" lon="-1.9432">
        <ele>6</ele>
        <time>2022-06-18T10:26:14Z</time>
      </trkpt>
      <trkpt lat="49.71145" lon="-1.94337">
        <ele>7</ele>
        <time>2022-06-18T10:26:41Z</time>
      </trkpt>
      <trkpt lat="49.71126" lon="-1.94351">
        <ele>8</ele>
        <time>2022-06-18T10:26:58Z</time>
      </trkpt>
      <trkpt lat="49.71083" lon="-1.94367">
        <ele>10</ele>
        <time>2022-06-18T10:27:33Z</time>
      </trkpt>
      <trkpt lat="49.71061" lon="-1.9438">
        <ele>11</ele>
        <time>2022-06-18T10:27:52Z</time>
      </trkpt>
      <trkpt lat="49.71019" lon="-1.9441">
        <ele>12</ele>
        <time>2022-06-18T10:28:29Z</time>
      </trkpt>
      <trkpt lat="49.70959" lon="-1.94459">
        <ele>15</ele>
        <time>2022-06-18T10:29:23Z</time>
      </trkpt>
      <trkpt lat="49.70938" lon="-1.94475">
        <ele>16</ele>
        <time>2022-06-18T10:29:42Z</time>
      </trkpt>
      <trkpt lat="49.70916" lon="-1.94488">
        <ele>17</ele>
        <time>2022-06-18T10:30:01Z</time>
      </trkpt>
      <trkpt lat="49.70903" lon="-1.945">
        <ele>17</ele>
        <time>2022-06-18T10:30:13Z</time>
      </trkpt>
      <trkpt lat="49.70886" lon="-1.94504">
        <ele>19</ele>
        <time>2022-06-18T10:30:27Z</time>
      </trkpt>
      <trkpt lat="49.7088" lon="-1.94509">
        <ele>19</ele>
        <time>2022-06-18T10:30:32Z</time>
      </trkpt>
      <trkpt lat="49.70876" lon="-1.94521">
        <ele>18</ele>
        <time>2022-06-18T10:30:39Z</time>
      </trkpt>
      <trkpt lat="49.70848" lon="-1.94552">
        <ele>18</ele>
        <time>2022-06-18T10:31:07Z</time>
      </trkpt>
      <trkpt lat="49.70822" lon="-1.94561">
        <ele>20</ele>
        <time>2022-06-18T10:31:28Z</time>
      </trkpt>
      <trkpt lat="49.70786" lon="-1.94555">
        <ele>25</ele>
        <time>2022-06-18T10:31:57Z</time>
      </trkpt>
      <trkpt lat="49.70742" lon="-1.94592">
        <ele>26</ele>
        <time>2022-06-18T10:32:37Z</time>
      </trkpt>
      <trkpt lat="49.70723" lon="-1.94646">
        <ele>18</ele>
        <time>2022-06-18T10:33:09Z</time>
      </trkpt>
      <trkpt lat="49.70669" lon="-1.94669">
        <ele>14</ele>
        <time>2022-06-18T10:33:54Z</time>
      </trkpt>
      <trkpt lat="49.7064" lon="-1.94657">
        <ele>17</ele>
        <time>2022-06-18T10:34:18Z</time>
      </trkpt>
      <trkpt lat="49.70612" lon="-1.94669">
        <ele>15</ele>
        <time>2022-06-18T10:34:41Z</time>
      </trkpt>
      <trkpt lat="49.70599" lon="-1.9467">
        <ele>15</ele>
        <time>2022-06-18T10:34:52Z</time>
      </trkpt>
      <trkpt lat="49.70573" lon="-1.94668">
        <ele>16</ele>
        <time>2022-06-18T10:35:13Z</time>
      </trkpt>
      <trkpt lat="49.70534" lon="-1.94686">
        <ele>12</ele>
        <time>2022-06-18T10:35:45Z</time>
      </trkpt>
      <trkpt lat="49.70518" lon="-1.94681">
        <ele>13</ele>
        <time>2022-06-18T10:35:58Z</time>
      </trkpt>
      <trkpt lat="49.70473" lon="-1.94654">
        <ele>14</ele>
        <time>2022-06-18T10:36:37Z</time>
      </trkpt>
      <trkpt lat="49.70455" lon="-1.94624">
        <ele>17</ele>
        <time>2022-06-18T10:36:58Z</time>
      </trkpt>
      <trkpt lat="49.70416" lon="-1.94541">
        <ele>19</ele>
        <time>2022-06-18T10:37:51Z</time>
      </trkpt>
      <trkpt lat="49.70391" lon="-1.94467">
        <ele>25</ele>
        <time>2022-06-18T10:38:34Z</time>
      </trkpt>
      <trkpt lat="49.70369" lon="-1.94394">
        <ele>35</ele>
        <time>2022-06-18T10:39:16Z</time>
      </trkpt>
      <trkpt lat="49.70332" lon="-1.94364">
        <ele>35</ele>
        <time>2022-06-18T10:39:50Z</time>
      </trkpt>
      <trkpt lat="49.70295" lon="-1.94374">
        <ele>35</ele>
        <time>2022-06-18T10:40:20Z</time>
      </trkpt>
      <trkpt lat="49.70249" lon="-1.94423">
        <ele>22</ele>
        <time>2022-06-18T10:41:04Z</time>
      </trkpt>
      <trkpt lat="49.70217" lon="-1.94451">
        <ele>17</ele>
        <time>2022-06-18T10:41:34Z</time>
      </trkpt>
      <trkpt lat="49.70191" lon="-1.94455">
        <ele>17</ele>
        <time>2022-06-18T10:41:55Z</time>
      </trkpt>
      <trkpt lat="49.70171" lon="-1.94432">
        <ele>24</ele>
        <time>2022-06-18T10:42:15Z</time>
      </trkpt>
      <trkpt lat="49.70147" lon="-1.94398">
        <ele>31</ele>
        <time>2022-06-18T10:42:41Z</time>
      </trkpt>
      <trkpt lat="49.70132" lon="-1.94385">
        <ele>33</ele>
        <time>2022-06-18T10:42:55Z</time>
      </trkpt>
      <trkpt lat="49.70117" lon="-1.94366">
        <ele>37</ele>
        <time>2022-06-18T10:43:10Z</time>
      </trkpt>
      <trkpt lat="49.70108" lon="-1.94364">
        <ele>36</ele>
        <time>2022-06-18T10:43:17Z</time>
      </trkpt>
      <trkpt lat="49.70105" lon="-1.94359">
        <ele>37</ele>
        <time>2022-06-18T10:43:21Z</time>
      </trkpt>
      <trkpt lat="49.70097" lon="-1.9435">
        <ele>38</ele>
        <time>2022-06-18T10:43:29Z</time>
      </trkpt>
      <trkpt lat="49.70088" lon="-1.94343">
        <ele>39</ele>
        <time>2022-06-18T10:43:37Z</time>
      </trkpt>
      <trkpt lat="49.70077" lon="-1.94338">
        <ele>38</ele>
        <time>2022-06-18T10:43:46Z</time>
      </trkpt>
      <trkpt lat="49.7006" lon="-1.94321">
        <ele>38</ele>
        <time>2022-06-18T10:44:02Z</time>
      </trkpt>
      <trkpt lat="49.70052" lon="-1.943">
        <ele>43</ele>
        <time>2022-06-18T10:44:15Z</time>
      </trkpt>
      <trkpt lat="49.70047" lon="-1.9428">
        <ele>47</ele>
        <time>2022-06-18T10:44:26Z</time>
      </trkpt>
      <trkpt lat="49.70042" lon="-1.94256">
        <ele>53</ele>
        <time>2022-06-18T10:44:39Z</time>
      </trkpt>
      <trkpt lat="49.70042" lon="-1.94179">
        <ele>69</ele>
        <time>2022-06-18T10:45:19Z</time>
      </trkpt>
      <trkpt lat="49.70034" lon="-1.94137">
        <ele>73</ele>
        <time>2022-06-18T10:45:42Z</time>
      </trkpt>
      <trkpt lat="49.70012" lon="-1.94078">
        <ele>78</ele>
        <time>2022-06-18T10:46:17Z</time>
      </trkpt>
      <trkpt lat="49.70007" lon="-1.94061">
        <ele>78</ele>
        <time>2022-06-18T10:46:27Z</time>
      </trkpt>
      <trkpt lat="49.70001" lon="-1.94028">
        <ele>79</ele>
        <time>2022-06-18T10:46:44Z</time>
      </trkpt>
      <trkpt lat="49.70003" lon="-1.94024">
        <ele>79</ele>
        <time>2022-06-18T10:46:47Z</time>
      </trkpt>
      <trkpt lat="49.7" lon="-1.93997">
        <ele>80</ele>
        <time>2022-06-18T10:47:01Z</time>
      </trkpt>
      <trkpt lat="49.69994" lon="-1.93963">
        <ele>79</ele>
        <time>2022-06-18T10:47:19Z</time>
      </trkpt>
      <trkpt lat="49.69981" lon="-1.93918">
        <ele>78</ele>
        <time>2022-06-18T10:47:45Z</time>
      </trkpt>
      <trkpt lat="49.6994" lon="-1.93893">
        <ele>78</ele>
        <time>2022-06-18T10:48:20Z</time>
      </trkpt>
      <trkpt lat="49.69927" lon="-1.93892">
        <ele>79</ele>
        <time>2022-06-18T10:48:31Z</time>
      </trkpt>
      <trkpt lat="49.6991" lon="-1.93902">
        <ele>79</ele>
        <time>2022-06-18T10:48:45Z</time>
      </trkpt>
      <trkpt lat="49.69898" lon="-1.93904">
        <ele>78</ele>
        <time>2022-06-18T10:48:55Z</time>
      </trkpt>
      <trkpt lat="49.69887" lon="-1.93913">
        <ele>78</ele>
        <time>2022-06-18T10:49:05Z</time>
      </trkpt>
      <trkpt lat="49.69871" lon="-1.93917">
        <ele>77</ele>
        <time>2022-06-18T10:49:18Z</time>
      </trkpt>
      <trkpt lat="49.69864" lon="-1.93917">
        <ele>76</ele>
        <time>2022-06-18T10:49:23Z</time>
      </trkpt>
      <trkpt lat="49.6985" lon="-1.93912">
        <ele>75</ele>
        <time>2022-06-18T10:49:35Z</time>
      </trkpt>
      <trkpt lat="49.69779" lon="-1.93866">
        <ele>63</ele>
        <time>2022-06-18T10:50:37Z</time>
      </trkpt>
      <trkpt lat="49.69765" lon="-1.9386">
        <ele>60</ele>
        <time>2022-06-18T10:50:48Z</time>
      </trkpt>
      <trkpt lat="49.69755" lon="-1.93852">
        <ele>60</ele>
        <time>2022-06-18T10:50:57Z</time>
      </trkpt>
      <trkpt lat="49.69715" lon="-1.93788">
        <ele>56</ele>
        <time>2022-06-18T10:51:43Z</time>
      </trkpt>
      <trkpt lat="49.69698" lon="-1.9377">
        <ele>53</ele>
        <time>2022-06-18T10:52:00Z</time>
      </trkpt>
      <trkpt lat="49.69676" lon="-1.93733">
        <ele>54</ele>
        <time>2022-06-18T10:52:26Z</time>
      </trkpt>
      <trkpt lat="49.69665" lon="-1.93719">
        <ele>54</ele>
        <time>2022-06-18T10:52:37Z</time>
      </trkpt>
      <trkpt lat="49.69676" lon="-1.93733">
        <ele>54</ele>
        <time>2022-06-18T10:52:49Z</time>
      </trkpt>
      <trkpt lat="49.69698" lon="-1.9377">
        <ele>53</ele>
        <time>2022-06-18T10:53:15Z</time>
      </trkpt>
      <trkpt lat="49.69715" lon="-1.93788">
        <ele>56</ele>
        <time>2022-06-18T10:53:31Z</time>
      </trkpt>
      <trkpt lat="49.69755" lon="-1.93852">
        <ele>60</ele>
        <time>2022-06-18T10:54:17Z</time>
      </trkpt>
      <trkpt lat="49.69765" lon="-1.9386">
        <ele>60</ele>
        <time>2022-06-18T10:54:26Z</time>
      </trkpt>
      <trkpt lat="49.69779" lon="-1.93866">
        <ele>63</ele>
        <time>2022-06-18T10:54:38Z</time>
      </trkpt>
      <trkpt lat="49.69835" lon="-1.93902">
        <ele>74</ele>
        <time>2022-06-18T10:55:26Z</time>
      </trkpt>
      <trkpt lat="49.69836" lon="-1.93893">
        <ele>74</ele>
        <time>2022-06-18T10:55:31Z</time>
      </trkpt>
      <trkpt lat="49.69834" lon="-1.93885">
        <ele>74</ele>
        <time>2022-06-18T10:55:36Z</time>
      </trkpt>
      <trkpt lat="49.69822" lon="-1.93866">
        <ele>72</ele>
        <time>2022-06-18T10:55:49Z</time>
      </trkpt>
      <trkpt lat="49.69814" lon="-1.93846">
        <ele>71</ele>
        <time>2022-06-18T10:56:02Z</time>
      </trkpt>
      <trkpt lat="49.698" lon="-1.93767">
        <ele>74</ele>
        <time>2022-06-18T10:56:44Z</time>
      </trkpt>
      <trkpt lat="49.69789" lon="-1.93717">
        <ele>78</ele>
        <time>2022-06-18T10:57:11Z</time>
      </trkpt>
      <trkpt lat="49.69785" lon="-1.93687">
        <ele>81</ele>
        <time>2022-06-18T10:57:27Z</time>
      </trkpt>
      <trkpt lat="49.69778" lon="-1.93654">
        <ele>84</ele>
        <time>2022-06-18T10:57:45Z</time>
      </trkpt>
      <trkpt lat="49.6976" lon="-1.93541">
        <ele>92</ele>
        <time>2022-06-18T10:58:45Z</time>
      </trkpt>
      <trkpt lat="49.69746" lon="-1.93521">
        <ele>94</ele>
        <time>2022-06-18T10:59:01Z</time>
      </trkpt>
      <trkpt lat="49.69728" lon="-1.93507">
        <ele>95</ele>
        <time>2022-06-18T10:59:17Z</time>
      </trkpt>
      <trkpt lat="49.6969" lon="-1.93494">
        <ele>97</ele>
        <time>2022-06-18T10:59:48Z</time>
      </trkpt>
      <trkpt lat="49.6966" lon="-1.93495">
        <ele>96</ele>
        <time>2022-06-18T11:00:12Z</time>
      </trkpt>
      <trkpt lat="49.6965" lon="-1.93493">
        <ele>95</ele>
        <time>2022-06-18T11:00:20Z</time>
      </trkpt>
      <trkpt lat="49.69635" lon="-1.93486">
        <ele>94</ele>
        <time>2022-06-18T11:00:33Z</time>
      </trkpt>
      <trkpt lat="49.69624" lon="-1.93475">
        <ele>94</ele>
        <time>2022-06-18T11:00:43Z</time>
      </trkpt>
      <trkpt lat="49.69589" lon="-1.9343">
        <ele>98</ele>
        <time>2022-06-18T11:01:20Z</time>
      </trkpt>
      <trkpt lat="49.69557" lon="-1.93405">
        <ele>98</ele>
        <time>2022-06-18T11:01:48Z</time>
      </trkpt>
      <trkpt lat="49.69539" lon="-1.93396">
        <ele>98</ele>
        <time>2022-06-18T11:02:03Z</time>
      </trkpt>
      <trkpt lat="49.69503" lon="-1.93385">
        <ele>97</ele>
        <time>2022-06-18T11:02:33Z</time>
      </trkpt>
      <trkpt lat="49.6949" lon="-1.93383">
        <ele>96</ele>
        <time>2022-06-18T11:02:43Z</time>
      </trkpt>
      <trkpt lat="49.6948" lon="-1.93377">
        <ele>96</ele>
        <time>2022-06-18T11:02:52Z</time>
      </trkpt>
      <trkpt lat="49.69463" lon="-1.93354">
        <ele>99</ele>
        <time>2022-06-18T11:03:10Z</time>
      </trkpt>
      <trkpt lat="49.6944" lon="-1.9333">
        <ele>101</ele>
        <time>2022-06-18T11:03:32Z</time>
      </trkpt>
      <trkpt lat="49.69433" lon="-1.93313">
        <ele>102</ele>
        <time>2022-06-18T11:03:43Z</time>
      </trkpt>
      <trkpt lat="49.69425" lon="-1.933">
        <ele>103</ele>
        <time>2022-06-18T11:03:52Z</time>
      </trkpt>
      <trkpt lat="49.69388" lon="-1.93268">
        <ele>103</ele>
        <time>2022-06-18T11:04:26Z</time>
      </trkpt>
      <trkpt lat="49.69328" lon="-1.93207">
        <ele>101</ele>
        <time>2022-06-18T11:05:23Z</time>
      </trkpt>
      <trkpt lat="49.69295" lon="-1.93198">
        <ele>97</ele>
        <time>2022-06-18T11:05:50Z</time>
      </trkpt>
      <trkpt lat="49.69282" lon="-1.93149">
        <ele>98</ele>
        <time>2022-06-18T11:06:18Z</time>
      </trkpt>
      <trkpt lat="49.6925" lon="-1.93073">
        <ele>96</ele>
        <time>2022-06-18T11:07:05Z</time>
      </trkpt>
      <trkpt lat="49.69236" lon="-1.93046">
        <ele>93</ele>
        <time>2022-06-18T11:07:23Z</time>
      </trkpt>
      <trkpt lat="49.69233" lon="-1.93036">
        <ele>93</ele>
        <time>2022-06-18T11:07:28Z</time>
      </trkpt>
      <trkpt lat="49.69234" lon="-1.93009">
        <ele>93</ele>
        <time>2022-06-18T11:07:42Z</time>
      </trkpt>
      <trkpt lat="49.69243" lon="-1.92972">
        <ele>96</ele>
        <time>2022-06-18T11:08:03Z</time>
      </trkpt>
      <trkpt lat="49.69268" lon="-1.92814">
        <ele>106</ele>
        <time>2022-06-18T11:09:27Z</time>
      </trkpt>
      <trkpt lat="49.6927" lon="-1.92778">
        <ele>108</ele>
        <time>2022-06-18T11:09:46Z</time>
      </trkpt>
      <trkpt lat="49.69264" lon="-1.9273">
        <ele>110</ele>
        <time>2022-06-18T11:10:11Z</time>
      </trkpt>
      <trkpt lat="49.69263" lon="-1.92634">
        <ele>115</ele>
        <time>2022-06-18T11:11:01Z</time>
      </trkpt>
      <trkpt lat="49.69274" lon="-1.9239">
        <ele>122</ele>
        <time>2022-06-18T11:13:07Z</time>
      </trkpt>
      <trkpt lat="49.69285" lon="-1.922">
        <ele>124</ele>
        <time>2022-06-18T11:14:46Z</time>
      </trkpt>
      <trkpt lat="49.69341" lon="-1.91922">
        <ele>128</ele>
        <time>2022-06-18T11:17:17Z</time>
      </trkpt>
      <trkpt lat="49.69355" lon="-1.91854">
        <ele>129</ele>
        <time>2022-06-18T11:17:54Z</time>
      </trkpt>
      <trkpt lat="49.6936" lon="-1.91802">
        <ele>130</ele>
        <time>2022-06-18T11:18:21Z</time>
      </trkpt>
      <trkpt lat="49.69387" lon="-1.91681">
        <ele>128</ele>
        <time>2022-06-18T11:19:28Z</time>
      </trkpt>
      <trkpt lat="49.6943" lon="-1.91688">
        <ele>127</ele>
        <time>2022-06-18T11:20:02Z</time>
      </trkpt>
      <trkpt lat="49.69503" lon="-1.9171">
        <ele>124</ele>
        <time>2022-06-18T11:21:02Z</time>
      </trkpt>
      <trkpt lat="49.69514" lon="-1.91702">
        <ele>122</ele>
        <time>2022-06-18T11:21:11Z</time>
      </trkpt>
      <trkpt lat="49.69516" lon="-1.91701">
        <ele>122</ele>
        <time>2022-06-18T11:21:13Z</time>
      </trkpt>
      <trkpt lat="49.69506" lon="-1.91633">
        <ele>120</ele>
        <time>2022-06-18T11:21:49Z</time>
      </trkpt>
      <trkpt lat="49.69497" lon="-1.91531">
        <ele>116</ele>
        <time>2022-06-18T11:22:43Z</time>
      </trkpt>
      <trkpt lat="49.69471" lon="-1.91272">
        <ele>107</ele>
        <time>2022-06-18T11:24:58Z</time>
      </trkpt>
      <trkpt lat="49.69458" lon="-1.90995">
        <ele>108</ele>
        <time>2022-06-18T11:27:22Z</time>
      </trkpt>
      <trkpt lat="49.69462" lon="-1.9083">
        <ele>109</ele>
        <time>2022-06-18T11:28:48Z</time>
      </trkpt>
      <trkpt lat="49.69452" lon="-1.90653">
        <ele>115</ele>
        <time>2022-06-18T11:30:20Z</time>
      </trkpt>
      <trkpt lat="49.6943" lon="-1.90507">
        <ele>116</ele>
        <time>2022-06-18T11:31:37Z</time>
      </trkpt>
      <trkpt lat="49.69396" lon="-1.90379">
        <ele>113</ele>
        <time>2022-06-18T11:32:49Z</time>
      </trkpt>
      <trkpt lat="49.69407" lon="-1.90376">
        <ele>112</ele>
        <time>2022-06-18T11:32:58Z</time>
      </trkpt>
      <trkpt lat="49.69434" lon="-1.90368">
        <ele>111</ele>
        <time>2022-06-18T11:33:20Z</time>
      </trkpt>
      <trkpt lat="49.69503" lon="-1.90353">
        <ele>110</ele>
        <time>2022-06-18T11:34:16Z</time>
      </trkpt>
      <trkpt lat="49.69538" lon="-1.90351">
        <ele>110</ele>
        <time>2022-06-18T11:34:44Z</time>
      </trkpt>
      <trkpt lat="49.69565" lon="-1.90344">
        <ele>109</ele>
        <time>2022-06-18T11:35:06Z</time>
      </trkpt>
      <trkpt lat="49.69564" lon="-1.90321">
        <ele>109</ele>
        <time>2022-06-18T11:35:18Z</time>
      </trkpt>
      <trkpt lat="49.69561" lon="-1.90244">
        <ele>107</ele>
        <time>2022-06-18T11:35:58Z</time>
      </trkpt>
      <trkpt lat="49.6957" lon="-1.90187">
        <ele>106</ele>
        <time>2022-06-18T11:36:28Z</time>
      </trkpt>
      <trkpt lat="49.69582" lon="-1.9013">
        <ele>105</ele>
        <time>2022-06-18T11:36:59Z</time>
      </trkpt>
      <trkpt lat="49.69591" lon="-1.90071">
        <ele>103</ele>
        <time>2022-06-18T11:37:30Z</time>
      </trkpt>
      <trkpt lat="49.69636" lon="-1.8996">
        <ele>100</ele>
        <time>2022-06-18T11:38:38Z</time>
      </trkpt>
      <trkpt lat="49.6965" lon="-1.89954">
        <ele>99</ele>
        <time>2022-06-18T11:38:50Z</time>
      </trkpt>
      <trkpt lat="49.69653" lon="-1.89948">
        <ele>99</ele>
        <time>2022-06-18T11:38:54Z</time>
      </trkpt>
      <trkpt lat="49.69654" lon="-1.89931">
        <ele>99</ele>
        <time>2022-06-18T11:39:03Z</time>
      </trkpt>
      <trkpt lat="49.69656" lon="-1.89857">
        <ele>102</ele>
        <time>2022-06-18T11:39:41Z</time>
      </trkpt>
      <trkpt lat="49.69662" lon="-1.89825">
        <ele>103</ele>
        <time>2022-06-18T11:39:58Z</time>
      </trkpt>
      <trkpt lat="49.69706" lon="-1.89721">
        <ele>100</ele>
        <time>2022-06-18T11:41:03Z</time>
      </trkpt>
      <trkpt lat="49.69718" lon="-1.8969">
        <ele>99</ele>
        <time>2022-06-18T11:41:21Z</time>
      </trkpt>
      <trkpt lat="49.69726" lon="-1.8966">
        <ele>98</ele>
        <time>2022-06-18T11:41:38Z</time>
      </trkpt>
      <trkpt lat="49.69728" lon="-1.89624">
        <ele>96</ele>
        <time>2022-06-18T11:41:57Z</time>
      </trkpt>
      <trkpt lat="49.69758" lon="-1.89522">
        <ele>90</ele>
        <time>2022-06-18T11:42:55Z</time>
      </trkpt>
      <trkpt lat="49.69758" lon="-1.89434">
        <ele>86</ele>
        <time>2022-06-18T11:43:40Z</time>
      </trkpt>
      <trkpt lat="49.69749" lon="-1.89346">
        <ele>78</ele>
        <time>2022-06-18T11:44:27Z</time>
      </trkpt>
      <trkpt lat="49.69728" lon="-1.89218">
        <ele>66</ele>
        <time>2022-06-18T11:45:35Z</time>
      </trkpt>
      <trkpt lat="49.6972" lon="-1.89177">
        <ele>63</ele>
        <time>2022-06-18T11:45:57Z</time>
      </trkpt>
      <trkpt lat="49.69707" lon="-1.89137">
        <ele>61</ele>
        <time>2022-06-18T11:46:20Z</time>
      </trkpt>
      <trkpt lat="49.6968" lon="-1.89079">
        <ele>61</ele>
        <time>2022-06-18T11:46:57Z</time>
      </trkpt>
      <trkpt lat="49.69679" lon="-1.89069">
        <ele>62</ele>
        <time>2022-06-18T11:47:03Z</time>
      </trkpt>
      <trkpt lat="49.69684" lon="-1.89062">
        <ele>62</ele>
        <time>2022-06-18T11:47:08Z</time>
      </trkpt>
      <trkpt lat="49.69729" lon="-1.89011">
        <ele>60</ele>
        <time>2022-06-18T11:47:53Z</time>
      </trkpt>
      <trkpt lat="49.69761" lon="-1.88915">
        <ele>64</ele>
        <time>2022-06-18T11:48:49Z</time>
      </trkpt>
      <trkpt lat="49.69752" lon="-1.88731">
        <ele>70</ele>
        <time>2022-06-18T11:50:24Z</time>
      </trkpt>
      <trkpt lat="49.69717" lon="-1.88748">
        <ele>73</ele>
        <time>2022-06-18T11:50:54Z</time>
      </trkpt>
      <trkpt lat="49.69716" lon="-1.8874">
        <ele>73</ele>
        <time>2022-06-18T11:50:58Z</time>
      </trkpt>
      <trkpt lat="49.69682" lon="-1.88576">
        <ele>68</ele>
        <time>2022-06-18T11:52:27Z</time>
      </trkpt>
      <trkpt lat="49.69656" lon="-1.88485">
        <ele>65</ele>
        <time>2022-06-18T11:53:18Z</time>
      </trkpt>
      <trkpt lat="49.69641" lon="-1.88477">
        <ele>66</ele>
        <time>2022-06-18T11:53:31Z</time>
      </trkpt>
      <trkpt lat="49.69617" lon="-1.8846">
        <ele>67</ele>
        <time>2022-06-18T11:53:52Z</time>
      </trkpt>
      <trkpt lat="49.69609" lon="-1.88428">
        <ele>67</ele>
        <time>2022-06-18T11:54:10Z</time>
      </trkpt>
      <trkpt lat="49.69584" lon="-1.88434">
        <ele>69</ele>
        <time>2022-06-18T11:54:30Z</time>
      </trkpt>
      <trkpt lat="49.69573" lon="-1.88448">
        <ele>70</ele>
        <time>2022-06-18T11:54:42Z</time>
      </trkpt>
      <trkpt lat="49.69565" lon="-1.88446">
        <ele>70</ele>
        <time>2022-06-18T11:54:48Z</time>
      </trkpt>
      <trkpt lat="49.69555" lon="-1.88452">
        <ele>71</ele>
        <time>2022-06-18T11:54:57Z</time>
      </trkpt>
      <trkpt lat="49.69534" lon="-1.88409">
        <ele>73</ele>
        <time>2022-06-18T11:55:25Z</time>
      </trkpt>
      <trkpt lat="49.69515" lon="-1.88377">
        <ele>77</ele>
        <time>2022-06-18T11:55:47Z</time>
      </trkpt>
      <trkpt lat="49.69489" lon="-1.88357">
        <ele>80</ele>
        <time>2022-06-18T11:56:10Z</time>
      </trkpt>
      <trkpt lat="49.69471" lon="-1.88325">
        <ele>83</ele>
        <time>2022-06-18T11:56:32Z</time>
      </trkpt>
      <trkpt lat="49.69461" lon="-1.88261">
        <ele>88</ele>
        <time>2022-06-18T11:57:07Z</time>
      </trkpt>
      <trkpt lat="49.69458" lon="-1.882">
        <ele>89</ele>
        <time>2022-06-18T11:57:38Z</time>
      </trkpt>
      <trkpt lat="49.69457" lon="-1.88095">
        <ele>90</ele>
        <time>2022-06-18T11:58:33Z</time>
      </trkpt>
      <trkpt lat="49.69485" lon="-1.8809">
        <ele>91</ele>
        <time>2022-06-18T11:58:55Z</time>
      </trkpt>
      <trkpt lat="49.69479" lon="-1.88032">
        <ele>88</ele>
        <time>2022-06-18T11:59:26Z</time>
      </trkpt>
      <trkpt lat="49.69463" lon="-1.8797">
        <ele>85</ele>
        <time>2022-06-18T12:00:00Z</time>
      </trkpt>
      <trkpt lat="49.69458" lon="-1.87939">
        <ele>84</ele>
        <time>2022-06-18T12:00:17Z</time>
      </trkpt>
      <trkpt lat="49.69457" lon="-1.87867">
        <ele>82</ele>
        <time>2022-06-18T12:00:54Z</time>
      </trkpt>
      <trkpt lat="49.6946" lon="-1.87846">
        <ele>81</ele>
        <time>2022-06-18T12:01:05Z</time>
      </trkpt>
      <trkpt lat="49.69458" lon="-1.87815">
        <ele>80</ele>
        <time>2022-06-18T12:01:21Z</time>
      </trkpt>
      <trkpt lat="49.6945" lon="-1.87795">
        <ele>79</ele>
        <time>2022-06-18T12:01:33Z</time>
      </trkpt>
      <trkpt lat="49.69468" lon="-1.87758">
        <ele>78</ele>
        <time>2022-06-18T12:01:57Z</time>
      </trkpt>
      <trkpt lat="49.69473" lon="-1.87742">
        <ele>78</ele>
        <time>2022-06-18T12:02:07Z</time>
      </trkpt>
      <trkpt lat="49.69478" lon="-1.87716">
        <ele>78</ele>
        <time>2022-06-18T12:02:21Z</time>
      </trkpt>
      <trkpt lat="49.69492" lon="-1.8769">
        <ele>78</ele>
        <time>2022-06-18T12:02:38Z</time>
      </trkpt>
      <trkpt lat="49.69488" lon="-1.87656">
        <ele>79</ele>
        <time>2022-06-18T12:02:56Z</time>
      </trkpt>
      <trkpt lat="49.69493" lon="-1.87642">
        <ele>79</ele>
        <time>2022-06-18T12:03:04Z</time>
      </trkpt>
      <trkpt lat="49.69504" lon="-1.87636">
        <ele>79</ele>
        <time>2022-06-18T12:03:14Z</time>
      </trkpt>
      <trkpt lat="49.69524" lon="-1.87634">
        <ele>80</ele>
        <time>2022-06-18T12:03:30Z</time>
      </trkpt>
      <trkpt lat="49.69533" lon="-1.87631">
        <ele>80</ele>
        <time>2022-06-18T12:03:37Z</time>
      </trkpt>
      <trkpt lat="49.69546" lon="-1.87656">
        <ele>79</ele>
        <time>2022-06-18T12:03:54Z</time>
      </trkpt>
      <trkpt lat="49.69557" lon="-1.87674">
        <ele>78</ele>
        <time>2022-06-18T12:04:07Z</time>
      </trkpt>
      <trkpt lat="49.69573" lon="-1.87676">
        <ele>78</ele>
        <time>2022-06-18T12:04:19Z</time>
      </trkpt>
      <trkpt lat="49.69596" lon="-1.87669">
        <ele>77</ele>
        <time>2022-06-18T12:04:38Z</time>
      </trkpt>
      <trkpt lat="49.69627" lon="-1.87667">
        <ele>76</ele>
        <time>2022-06-18T12:05:03Z</time>
      </trkpt>
      <trkpt lat="49.69674" lon="-1.8766">
        <ele>74</ele>
        <time>2022-06-18T12:05:41Z</time>
      </trkpt>
      <trkpt lat="49.69723" lon="-1.87681">
        <ele>73</ele>
        <time>2022-06-18T12:06:22Z</time>
      </trkpt>
      <trkpt lat="49.69755" lon="-1.87669">
        <ele>74</ele>
        <time>2022-06-18T12:06:48Z</time>
      </trkpt>
      <trkpt lat="49.69817" lon="-1.87688">
        <ele>71</ele>
        <time>2022-06-18T12:07:39Z</time>
      </trkpt>
      <trkpt lat="49.69842" lon="-1.87703">
        <ele>69</ele>
        <time>2022-06-18T12:08:00Z</time>
      </trkpt>
      <trkpt lat="49.69868" lon="-1.87682">
        <ele>71</ele>
        <time>2022-06-18T12:08:24Z</time>
      </trkpt>
      <trkpt lat="49.69928" lon="-1.87693">
        <ele>67</ele>
        <time>2022-06-18T12:09:12Z</time>
      </trkpt>
      <trkpt lat="49.69964" lon="-1.87697">
        <ele>63</ele>
        <time>2022-06-18T12:09:41Z</time>
      </trkpt>
      <trkpt lat="49.69993" lon="-1.877">
        <ele>60</ele>
        <time>2022-06-18T12:10:04Z</time>
      </trkpt>
      <trkpt lat="49.70044" lon="-1.87753">
        <ele>44</ele>
        <time>2022-06-18T12:10:53Z</time>
      </trkpt>
      <trkpt lat="49.70107" lon="-1.87735">
        <ele>32</ele>
        <time>2022-06-18T12:11:45Z</time>
      </trkpt>
      <trkpt lat="49.70111" lon="-1.87721">
        <ele>31</ele>
        <time>2022-06-18T12:11:52Z</time>
      </trkpt>
      <trkpt lat="49.7011" lon="-1.87699">
        <ele>32</ele>
        <time>2022-06-18T12:12:04Z</time>
      </trkpt>
      <trkpt lat="49.70116" lon="-1.87646">
        <ele>31</ele>
        <time>2022-06-18T12:12:32Z</time>
      </trkpt>
      <trkpt lat="49.7012" lon="-1.87628">
        <ele>30</ele>
        <time>2022-06-18T12:12:42Z</time>
      </trkpt>
      <trkpt lat="49.70123" lon="-1.87611">
        <ele>29</ele>
        <time>2022-06-18T12:12:51Z</time>
      </trkpt>
      <trkpt lat="49.70138" lon="-1.87605">
        <ele>25</ele>
        <time>2022-06-18T12:13:03Z</time>
      </trkpt>
      <trkpt lat="49.70172" lon="-1.87669">
        <ele>18</ele>
        <time>2022-06-18T12:13:46Z</time>
      </trkpt>
      <trkpt lat="49.70215" lon="-1.87758">
        <ele>12</ele>
        <time>2022-06-18T12:14:44Z</time>
      </trkpt>
      <trkpt lat="49.70234" lon="-1.87787">
        <ele>11</ele>
        <time>2022-06-18T12:15:05Z</time>
      </trkpt>
      <trkpt lat="49.70278" lon="-1.87847">
        <ele>9</ele>
        <time>2022-06-18T12:15:52Z</time>
      </trkpt>
      <trkpt lat="49.70293" lon="-1.87857">
        <ele>9</ele>
        <time>2022-06-18T12:16:05Z</time>
      </trkpt>
      <trkpt lat="49.70295" lon="-1.87893">
        <ele>9</ele>
        <time>2022-06-18T12:16:24Z</time>
      </trkpt>
      <trkpt lat="49.70295" lon="-1.87896">
        <ele>9</ele>
        <time>2022-06-18T12:16:25Z</time>
      </trkpt>
      <trkpt lat="49.70321" lon="-1.87889">
        <ele>8</ele>
        <time>2022-06-18T12:16:46Z</time>
      </trkpt>
      <trkpt lat="49.70356" lon="-1.87885">
        <ele>7</ele>
        <time>2022-06-18T12:17:15Z</time>
      </trkpt>
      <trkpt lat="49.70389" lon="-1.87887">
        <ele>6</ele>
        <time>2022-06-18T12:17:41Z</time>
      </trkpt>
      <trkpt lat="49.70429" lon="-1.87891">
        <ele>5</ele>
        <time>2022-06-18T12:18:13Z</time>
      </trkpt>
      <trkpt lat="49.7048" lon="-1.87911">
        <ele>3</ele>
        <time>2022-06-18T12:18:55Z</time>
      </trkpt>
      <trkpt lat="49.7058" lon="-1.87915">
        <ele>2</ele>
        <time>2022-06-18T12:20:15Z</time>
      </trkpt>
      <trkpt lat="49.70599" lon="-1.87915">
        <ele>2</ele>
        <time>2022-06-18T12:20:30Z</time>
      </trkpt>
      <trkpt lat="49.70593" lon="-1.88">
        <ele>1</ele>
        <time>2022-06-18T12:21:15Z</time>
      </trkpt>
      <trkpt lat="49.7057" lon="-1.88205">
        <ele>2</ele>
        <time>2022-06-18T12:23:02Z</time>
      </trkpt>
      <trkpt lat="49.70564" lon="-1.88299">
        <ele>2</ele>
        <time>2022-06-18T12:23:51Z</time>
      </trkpt>
      <trkpt lat="49.70565" lon="-1.88421">
        <ele>2</ele>
        <time>2022-06-18T12:24:55Z</time>
      </trkpt>
      <trkpt lat="49.70577" lon="-1.88614">
        <ele>1</ele>
        <time>2022-06-18T12:26:35Z</time>
      </trkpt>
      <trkpt lat="49.70612" lon="-1.88828">
        <ele>2</ele>
        <time>2022-06-18T12:28:29Z</time>
      </trkpt>
      <trkpt lat="49.70625" lon="-1.88877">
        <ele>3</ele>
        <time>2022-06-18T12:28:57Z</time>
      </trkpt>
      <trkpt lat="49.70638" lon="-1.88916">
        <ele>3</ele>
        <time>2022-06-18T12:29:19Z</time>
      </trkpt>
      <trkpt lat="49.7065" lon="-1.88944">
        <ele>4</ele>
        <time>2022-06-18T12:29:37Z</time>
      </trkpt>
      <trkpt lat="49.70664" lon="-1.88983">
        <ele>5</ele>
        <time>2022-06-18T12:30:00Z</time>
      </trkpt>
      <trkpt lat="49.70692" lon="-1.89025">
        <ele>6</ele>
        <time>2022-06-18T12:30:31Z</time>
      </trkpt>
      <trkpt lat="49.70722" lon="-1.89077">
        <ele>8</ele>
        <time>2022-06-18T12:31:07Z</time>
      </trkpt>
      <trkpt lat="49.7073" lon="-1.89086">
        <ele>8</ele>
        <time>2022-06-18T12:31:15Z</time>
      </trkpt>
      <trkpt lat="49.70768" lon="-1.89101">
        <ele>9</ele>
        <time>2022-06-18T12:31:47Z</time>
      </trkpt>
      <trkpt lat="49.70809" lon="-1.89109">
        <ele>10</ele>
        <time>2022-06-18T12:32:20Z</time>
      </trkpt>
      <trkpt lat="49.70854" lon="-1.89079">
        <ele>7</ele>
        <time>2022-06-18T12:32:59Z</time>
      </trkpt>
      <trkpt lat="49.70892" lon="-1.89061">
        <ele>5</ele>
        <time>2022-06-18T12:33:31Z</time>
      </trkpt>
      <trkpt lat="49.70901" lon="-1.89064">
        <ele>6</ele>
        <time>2022-06-18T12:33:38Z</time>
      </trkpt>
      <trkpt lat="49.70917" lon="-1.89062">
        <ele>5</ele>
        <time>2022-06-18T12:33:51Z</time>
      </trkpt>
      <trkpt lat="49.70928" lon="-1.89043">
        <ele>4</ele>
        <time>2022-06-18T12:34:04Z</time>
      </trkpt>
      <trkpt lat="49.7094" lon="-1.89044">
        <ele>3</ele>
        <time>2022-06-18T12:34:14Z</time>
      </trkpt>
      <trkpt lat="49.70952" lon="-1.89077">
        <ele>4</ele>
        <time>2022-06-18T12:34:33Z</time>
      </trkpt>
      <trkpt lat="49.70947" lon="-1.89094">
        <ele>5</ele>
        <time>2022-06-18T12:34:43Z</time>
      </trkpt>
      <trkpt lat="49.70934" lon="-1.89135">
        <ele>8</ele>
        <time>2022-06-18T12:35:07Z</time>
      </trkpt>
      <trkpt lat="49.70927" lon="-1.89178">
        <ele>11</ele>
        <time>2022-06-18T12:35:30Z</time>
      </trkpt>
      <trkpt lat="49.70937" lon="-1.89208">
        <ele>11</ele>
        <time>2022-06-18T12:35:47Z</time>
      </trkpt>
      <trkpt lat="49.70934" lon="-1.89235">
        <ele>13</ele>
        <time>2022-06-18T12:36:01Z</time>
      </trkpt>
      <trkpt lat="49.70945" lon="-1.89265">
        <ele>13</ele>
        <time>2022-06-18T12:36:19Z</time>
      </trkpt>
      <trkpt lat="49.70948" lon="-1.89282">
        <ele>13</ele>
        <time>2022-06-18T12:36:28Z</time>
      </trkpt>
      <trkpt lat="49.70953" lon="-1.89345">
        <ele>16</ele>
        <time>2022-06-18T12:37:01Z</time>
      </trkpt>
      <trkpt lat="49.70958" lon="-1.89376">
        <ele>16</ele>
        <time>2022-06-18T12:37:18Z</time>
      </trkpt>
      <trkpt lat="49.70961" lon="-1.89387">
        <ele>16</ele>
        <time>2022-06-18T12:37:24Z</time>
      </trkpt>
      <trkpt lat="49.70998" lon="-1.8947">
        <ele>11</ele>
        <time>2022-06-18T12:38:16Z</time>
      </trkpt>
      <trkpt lat="49.71036" lon="-1.89535">
        <ele>10</ele>
        <time>2022-06-18T12:39:01Z</time>
      </trkpt>
      <trkpt lat="49.71048" lon="-1.8955">
        <ele>9</ele>
        <time>2022-06-18T12:39:14Z</time>
      </trkpt>
      <trkpt lat="49.71066" lon="-1.89576">
        <ele>8</ele>
        <time>2022-06-18T12:39:33Z</time>
      </trkpt>
      <trkpt lat="49.71106" lon="-1.89649">
        <ele>5</ele>
        <time>2022-06-18T12:40:23Z</time>
      </trkpt>
    </trkseg>
  </trk>
</gpx>